createdAt,value
2022-09-16T00:01:48.746Z,989.21
2022-09-16T00:06:45.432Z,989.18
2022-09-16T00:11:45.374Z,989.20
2022-09-16T00:16:45.500Z,989.27
2022-09-16T00:21:45.366Z,989.27
2022-09-16T00:26:45.167Z,989.23
2022-09-16T00:31:45.335Z,989.24
2022-09-16T00:36:44.946Z,989.28
2022-09-16T00:41:57.183Z,989.31
2022-09-16T00:48:35.521Z,989.30
2022-09-16T00:53:45.991Z,989.26
2022-09-16T00:58:35.333Z,989.23
2022-09-16T01:04:52.801Z,989.27
2022-09-16T01:12:38.296Z,989.26
2022-09-16T01:17:38.331Z,989.27
2022-09-16T01:22:38.047Z,989.23
2022-09-16T01:34:51.811Z,989.27
2022-09-16T01:41:09.654Z,989.24
2022-09-16T01:46:09.462Z,989.28
2022-09-16T01:51:09.508Z,989.22
2022-09-16T01:56:09.446Z,989.19
2022-09-16T02:01:09.461Z,989.10
2022-09-16T02:06:09.206Z,989.11
2022-09-16T02:11:09.103Z,989.07
2022-09-16T02:16:09.067Z,989.08
2022-09-16T02:21:09.136Z,989.09
2022-09-16T02:26:08.874Z,989.09
2022-09-16T02:31:11.934Z,989.15
2022-09-16T02:36:08.771Z,989.14
2022-09-16T02:43:53.692Z,989.19
2022-09-16T02:50:47.882Z,989.15
2022-09-16T02:55:47.871Z,989.23
2022-09-16T03:00:47.544Z,989.30
2022-09-16T03:05:47.541Z,989.30
2022-09-16T03:10:47.799Z,989.35
2022-09-16T03:15:47.367Z,989.35
2022-09-16T03:20:47.316Z,989.33
2022-09-16T03:25:47.408Z,989.31
2022-09-16T03:30:47.297Z,989.31
2022-09-16T03:35:47.096Z,989.29
2022-09-16T03:40:50.080Z,989.31
2022-09-16T03:47:05.425Z,989.31
2022-09-16T03:52:05.242Z,989.27
2022-09-16T03:57:05.125Z,989.25
2022-09-16T04:02:05.156Z,989.22
2022-09-16T04:07:05.131Z,989.30
2022-09-16T04:12:04.976Z,989.24
2022-09-16T04:17:05.920Z,989.28
2022-09-16T04:22:04.980Z,989.34
2022-09-16T04:27:04.969Z,989.34
2022-09-16T04:32:04.736Z,989.24
2022-09-16T04:37:07.795Z,989.22
2022-09-16T04:42:04.623Z,989.23
2022-09-16T04:47:04.475Z,989.22
2022-09-16T04:52:04.581Z,989.19
2022-09-16T04:57:04.361Z,989.14
2022-09-16T05:02:04.393Z,989.25
2022-09-16T05:07:04.395Z,989.24
2022-09-16T05:12:04.304Z,989.20
2022-09-16T05:17:04.060Z,989.31
2022-09-16T05:22:04.089Z,989.26
2022-09-16T05:27:04.360Z,989.25
2022-09-16T05:32:03.972Z,989.25
2022-09-16T05:37:06.921Z,989.26
2022-09-16T05:42:03.775Z,989.23
2022-09-16T05:47:11.726Z,989.20
2022-09-16T05:52:14.188Z,989.14
2022-09-16T05:57:11.481Z,989.10
2022-09-16T06:02:12.556Z,989.10
2022-09-16T06:07:03.621Z,989.05
2022-09-16T06:12:03.521Z,988.93
2022-09-16T06:17:03.266Z,989.01
2022-09-16T06:22:03.351Z,988.98
2022-09-16T06:30:37.573Z,988.98
2022-09-16T06:35:36.830Z,989.00
2022-09-16T06:40:37.006Z,988.90
2022-09-16T06:53:40.045Z,988.76
2022-09-16T07:00:09.521Z,988.72
2022-09-16T07:05:16.726Z,988.73
2022-09-16T07:10:16.538Z,988.80
2022-09-16T07:15:09.168Z,988.80
2022-09-16T07:20:08.932Z,988.80
2022-09-16T07:25:08.926Z,988.79
2022-09-16T07:30:09.279Z,988.73
2022-09-16T07:35:09.523Z,988.83
2022-09-16T07:40:08.806Z,988.90
2022-09-16T07:45:08.616Z,988.93
2022-09-16T07:50:11.585Z,988.89
2022-09-16T07:55:08.450Z,988.92
2022-09-16T08:00:08.385Z,988.94
2022-09-16T08:05:08.366Z,988.99
2022-09-16T08:10:08.291Z,988.98
2022-09-16T08:15:08.201Z,988.90
2022-09-16T08:20:08.218Z,988.80
2022-09-16T08:25:08.120Z,988.84
2022-09-16T08:30:08.026Z,988.81
2022-09-16T08:35:07.985Z,988.86
2022-09-16T08:40:08.261Z,988.90
2022-09-16T08:45:07.901Z,988.97
2022-09-16T08:50:10.868Z,988.98
2022-09-16T08:55:07.836Z,988.91
2022-09-16T09:00:07.635Z,988.90
2022-09-16T09:05:07.616Z,988.95
2022-09-16T09:10:10.166Z,988.79
2022-09-16T09:15:07.417Z,988.84
2022-09-16T09:20:07.391Z,988.96
2022-09-16T09:25:07.246Z,988.79
2022-09-16T09:30:07.291Z,988.77
2022-09-16T09:35:07.176Z,988.70
2022-09-16T09:40:07.153Z,988.61
2022-09-16T09:45:06.998Z,988.72
2022-09-16T09:50:10.371Z,988.78
2022-09-16T09:55:06.900Z,988.78
2022-09-16T10:00:06.854Z,988.78
2022-09-16T10:05:07.040Z,988.90
2022-09-16T10:49:59.488Z,988.74
2022-09-16T10:54:59.000Z,988.63
2022-09-16T10:59:58.856Z,988.56
2022-09-16T11:04:58.549Z,988.59
2022-09-16T11:09:58.679Z,988.49
2022-09-16T11:14:58.442Z,988.38
2022-09-16T11:19:58.390Z,988.42
2022-09-16T11:25:06.188Z,988.42
2022-09-16T11:30:05.966Z,988.39
2022-09-16T11:34:58.349Z,988.42
2022-09-16T11:40:01.183Z,988.40
2022-09-16T11:44:57.974Z,988.38
2022-09-16T11:50:06.239Z,988.34
2022-09-16T11:54:57.982Z,988.34
2022-09-16T11:59:57.819Z,988.35
2022-09-16T12:04:57.866Z,988.33
2022-09-16T12:09:57.874Z,988.27
2022-09-16T12:15:00.931Z,988.20
2022-09-16T12:19:58.618Z,988.21
2022-09-16T12:24:57.618Z,988.24
2022-09-16T12:29:57.499Z,988.24
2022-09-16T12:34:57.333Z,988.19
2022-09-16T12:40:00.496Z,988.13
2022-09-16T12:44:57.281Z,988.11
2022-09-16T12:49:57.303Z,988.08
2022-09-16T12:55:07.688Z,988.10
2022-09-16T12:59:58.285Z,988.08
2022-09-16T13:04:57.150Z,988.00
2022-09-16T13:09:56.914Z,988.01
2022-09-16T13:14:56.895Z,988.04
2022-09-16T13:19:57.073Z,987.97
2022-09-16T13:24:56.650Z,987.94
2022-09-16T13:29:56.710Z,987.92
2022-09-16T13:34:56.721Z,987.94
2022-09-16T13:39:59.704Z,987.95
2022-09-16T13:44:56.447Z,987.91
2022-09-16T13:49:56.468Z,987.87
2022-09-16T13:55:12.483Z,987.90
2022-09-16T13:59:57.461Z,987.89
2022-09-16T14:04:56.528Z,987.75
2022-09-16T14:09:56.301Z,987.75
2022-09-16T14:14:56.191Z,987.69
2022-09-16T14:19:56.046Z,987.69
2022-09-16T14:25:06.700Z,987.68
2022-09-16T14:29:57.440Z,987.62
2022-09-16T14:37:36.358Z,987.49
2022-09-16T14:42:36.116Z,987.50
2022-09-16T14:47:52.637Z,987.49
2022-09-16T14:52:37.246Z,987.50
2022-09-16T14:57:35.941Z,987.40
2022-09-16T15:02:36.144Z,987.39
2022-09-16T15:08:53.695Z,987.38
2022-09-16T15:13:53.405Z,987.36
2022-09-16T15:18:53.632Z,987.36
2022-09-16T15:23:54.121Z,987.31
2022-09-16T15:28:53.120Z,987.28
2022-09-16T15:33:53.006Z,987.31
2022-09-16T15:38:53.103Z,987.37
2022-09-16T15:45:14.258Z,987.35
2022-09-16T15:50:13.910Z,987.27
2022-09-16T15:55:13.816Z,987.30
2022-09-16T16:00:13.783Z,987.33
2022-09-16T16:05:13.701Z,987.35
2022-09-16T16:10:13.676Z,987.32
2022-09-16T16:15:13.605Z,987.31
2022-09-16T16:20:13.453Z,987.32
2022-09-16T16:25:13.675Z,987.34
2022-09-16T16:30:13.272Z,987.32
2022-09-16T16:35:16.378Z,987.28
2022-09-16T16:40:13.356Z,987.26
2022-09-16T16:45:13.552Z,987.32
2022-09-16T16:50:13.200Z,987.35
2022-09-16T16:55:13.209Z,987.45
2022-09-16T17:00:13.183Z,987.44
2022-09-16T17:05:13.005Z,987.47
2022-09-16T17:10:12.952Z,987.58
2022-09-16T17:15:12.778Z,987.54
2022-09-16T17:20:12.671Z,987.62
2022-09-16T17:25:12.742Z,987.65
2022-09-16T17:30:12.456Z,987.67
2022-09-16T17:35:15.736Z,987.72
2022-09-16T17:40:12.423Z,987.77
2022-09-16T17:45:12.573Z,987.85
2022-09-16T17:50:12.394Z,987.93
2022-09-16T17:55:12.237Z,987.90
2022-09-16T18:00:13.542Z,987.96
2022-09-16T18:05:19.710Z,987.94
2022-09-16T18:10:12.038Z,987.96
2022-09-16T18:15:12.466Z,988.05
2022-09-16T18:20:12.950Z,988.19
2022-09-16T18:25:12.058Z,988.23
2022-09-16T18:30:11.966Z,988.30
2022-09-16T18:35:14.869Z,988.24
2022-09-16T18:40:11.775Z,988.29
2022-09-16T18:45:11.828Z,988.38
2022-09-16T18:55:32.296Z,988.51
2022-09-16T19:01:52.921Z,988.54
2022-09-16T19:06:52.472Z,988.64
2022-09-16T19:11:52.470Z,988.72
2022-09-16T19:27:08.475Z,988.64
2022-09-16T19:32:07.764Z,988.59
2022-09-16T19:37:09.102Z,988.49
2022-09-16T19:53:58.559Z,988.81
2022-09-16T19:58:58.070Z,988.81
2022-09-16T20:05:48.358Z,988.63
2022-09-16T20:10:48.100Z,988.55
2022-09-16T20:15:48.157Z,988.54
2022-09-16T20:20:49.348Z,988.57
2022-09-16T20:25:47.843Z,988.61
2022-09-16T20:30:47.801Z,988.69
2022-09-16T20:41:31.125Z,988.73
2022-09-16T20:46:32.820Z,988.77
2022-09-16T20:51:31.090Z,988.69
2022-09-16T20:56:37.761Z,988.69
2022-09-16T21:01:32.017Z,988.69
2022-09-16T21:06:32.170Z,988.75
2022-09-16T21:11:32.259Z,988.73
2022-09-16T21:16:30.989Z,988.68
2022-09-16T21:21:30.825Z,988.76
2022-09-16T21:26:30.681Z,988.72
2022-09-16T21:31:33.634Z,988.73
2022-09-16T21:36:30.389Z,988.83
2022-09-16T21:41:30.586Z,988.84
2022-09-16T21:46:30.404Z,988.80
2022-09-16T21:51:30.182Z,988.78
2022-09-16T21:56:30.187Z,988.83
2022-09-16T22:03:10.066Z,988.76
2022-09-16T22:08:09.051Z,988.75
2022-09-16T22:13:09.146Z,988.73
2022-09-16T22:39:57.084Z,988.85
2022-09-16T22:44:56.936Z,988.81
2022-09-16T22:49:56.776Z,988.75
2022-09-16T22:54:56.852Z,988.77
2022-09-16T22:59:56.952Z,988.81
2022-09-16T23:04:56.641Z,988.72
2022-09-16T23:09:56.701Z,988.77
2022-09-16T23:16:15.434Z,988.72
2022-09-16T23:22:43.163Z,988.67
2022-09-16T23:27:43.118Z,988.71
2022-09-16T23:32:42.905Z,988.68
2022-09-16T23:37:42.746Z,988.67
2022-09-16T23:42:43.002Z,988.54
2022-09-16T23:47:42.816Z,988.55
2022-09-16T23:52:42.563Z,988.48
2022-09-16T23:57:42.475Z,988.49
